Time;durP1;ratioP1;P1;durP2;ratioP2;P2;SDS_P1;SDS_P2;PMS_P1;PMS_P2;Temp;Humidity;BMP_temperature;BMP_pressure;BME280_temperature;BME280_humidity;BME280_pressure;Samples;Min_cycle;Max_cycle;Signal;HPM_P1;HPM_P2
2021/05/28 00:01:58;;;;;;;11.50;7.03;;;12.20;92.60;;;;;;5044892;28;20411;-75
2021/05/28 00:04:24;;;;;;;10.50;7.27;;;12.10;92.70;;;;;;5028146;28;20537;-76
2021/05/28 00:06:50;;;;;;;13.80;7.97;;;12.10;93.10;;;;;;5044337;28;20449;-76
2021/05/28 00:09:15;;;;;;;13.13;7.63;;;11.90;93.90;;;;;;5036869;28;20191;-77
2021/05/28 00:11:41;;;;;;;12.97;7.97;;;11.80;94.40;;;;;;5038158;28;20181;-78
2021/05/28 00:14:07;;;;;;;14.50;8.30;;;11.80;94.70;;;;;;5044322;28;20367;-76
2021/05/28 00:16:33;;;;;;;16.70;9.60;;;11.90;94.60;;;;;;5043264;28;20215;-76
2021/05/28 00:18:59;;;;;;;13.93;10.40;;;11.90;94.70;;;;;;5051216;28;20909;-76
2021/05/28 00:21:25;;;;;;;13.57;8.17;;;11.90;94.80;;;;;;5037587;28;20850;-76
2021/05/28 00:23:51;;;;;;;16.33;8.43;;;11.90;94.90;;;;;;5053373;28;20814;-77
2021/05/28 00:26:16;;;;;;;12.43;7.80;;;11.80;95.00;;;;;;5054239;28;20285;-77
2021/05/28 00:28:47;;;;;;;14.70;9.40;;;11.80;95.30;;;;;;5035283;28;20193;-77
2021/05/28 00:31:13;;;;;;;14.33;9.00;;;11.90;95.10;;;;;;5045649;28;20207;-76
2021/05/28 00:33:39;;;;;;;15.80;8.13;;;11.90;94.80;;;;;;5048373;28;20493;-76
2021/05/28 00:36:04;;;;;;;10.07;6.80;;;11.90;94.50;;;;;;5048873;28;20442;-76
2021/05/28 00:38:30;;;;;;;11.47;7.10;;;12.10;94.00;;;;;;5029465;28;20264;-76
2021/05/28 00:40:56;;;;;;;12.33;7.97;;;12.10;93.40;;;;;;5042582;28;20180;-76
2021/05/28 00:43:22;;;;;;;18.40;8.50;;;12.10;93.50;;;;;;5029813;28;20679;-77
2021/05/28 00:45:47;;;;;;;17.70;9.77;;;12.00;93.60;;;;;;5018242;28;20705;-77
2021/05/28 00:48:13;;;;;;;13.63;8.43;;;11.80;94.00;;;;;;5035253;28;20610;-76
2021/05/28 00:50:39;;;;;;;15.77;10.63;;;11.70;94.80;;;;;;5036927;28;20557;-76
2021/05/28 00:53:05;;;;;;;16.87;9.50;;;11.70;94.70;;;;;;5030151;28;20213;-76
2021/05/28 00:55:31;;;;;;;14.57;9.20;;;11.60;95.00;;;;;;5030169;28;20230;-76
2021/05/28 00:57:57;;;;;;;14.97;8.17;;;11.60;95.00;;;;;;5049638;28;20427;-76
2021/05/28 01:00:27;;;;;;;14.10;8.23;;;11.70;94.90;;;;;;5048566;28;20275;-76
2021/05/28 01:02:54;;;;;;;14.13;8.20;;;11.90;94.70;;;;;;5042627;28;20427;-76
2021/05/28 01:05:21;;;;;;;12.67;7.57;;;11.90;94.00;;;;;;5042818;28;20415;-76
2021/05/28 01:07:46;;;;;;;11.60;6.67;;;11.80;93.10;;;;;;5036041;28;20478;-76
2021/05/28 01:10:14;;;;;;;9.73;5.40;;;11.70;92.10;;;;;;5048494;28;20842;-76
2021/05/28 01:12:40;;;;;;;13.30;6.03;;;11.80;92.10;;;;;;5048314;28;20184;-76
2021/05/28 01:15:07;;;;;;;10.07;5.70;;;12.00;91.80;;;;;;5035662;28;20451;-76
2021/05/28 01:17:33;;;;;;;13.63;6.47;;;11.90;90.60;;;;;;5021557;28;20445;-76
2021/05/28 01:19:59;;;;;;;14.13;6.20;;;12.00;91.10;;;;;;5011682;28;20939;-76
2021/05/28 01:22:25;;;;;;;13.67;7.87;;;12.00;91.00;;;;;;5037819;28;20415;-76
2021/05/28 01:24:51;;;;;;;9.67;6.23;;;12.00;90.90;;;;;;5051031;28;20236;-75
2021/05/28 01:27:18;;;;;;;9.73;6.17;;;11.90;91.00;;;;;;5051512;28;20975;-75
2021/05/28 01:29:45;;;;;;;11.03;5.80;;;11.90;91.10;;;;;;5054426;28;20189;-75
2021/05/28 01:32:11;;;;;;;11.67;6.00;;;11.80;90.20;;;;;;5039054;28;20519;-76
2021/05/28 01:34:37;;;;;;;9.80;4.97;;;11.80;90.10;;;;;;5040521;28;20529;-75
2021/05/28 01:37:03;;;;;;;9.50;5.67;;;11.80;89.90;;;;;;5050543;28;20932;-76
2021/05/28 01:39:30;;;;;;;8.77;4.53;;;11.90;90.10;;;;;;5034455;28;20607;-76
2021/05/28 01:41:55;;;;;;;13.27;5.70;;;12.00;90.10;;;;;;5029666;28;20412;-75
2021/05/28 01:44:21;;;;;;;11.97;6.27;;;12.10;89.70;;;;;;5041085;28;20915;-75
2021/05/28 01:46:48;;;;;;;8.50;5.20;;;12.00;89.60;;;;;;5028890;28;20675;-76
2021/05/28 01:49:15;;;;;;;10.97;5.53;;;12.10;89.30;;;;;;5031113;28;20196;-75
2021/05/28 01:51:51;;;;;;;7.17;4.80;;;12.00;88.00;;;;;;5044599;28;20815;-76
2021/05/28 01:54:18;;;;;;;9.03;5.63;;;11.90;88.70;;;;;;5022712;28;20475;-76
2021/05/28 01:56:46;;;;;;;8.23;5.10;;;11.90;88.70;;;;;;5053670;28;20944;-75
2021/05/28 01:59:25;;;;;;;8.23;5.30;;;12.00;89.00;;;;;;5040267;28;20423;-76
2021/05/28 02:01:54;;;;;;;6.43;4.53;;;12.00;88.60;;;;;;5039882;28;20485;-75
2021/05/28 02:04:21;;;;;;;7.90;4.67;;;12.10;88.70;;;;;;5038029;28;20501;-75
2021/05/28 02:06:47;;;;;;;9.20;5.20;;;12.20;88.60;;;;;;5038297;28;20452;-75
2021/05/28 02:09:13;;;;;;;6.93;4.37;;;12.30;88.40;;;;;;5044534;28;20434;-76
2021/05/28 02:11:38;;;;;;;7.63;4.30;;;12.30;88.30;;;;;;5058480;28;20192;-75
2021/05/28 02:14:05;;;;;;;7.10;4.73;;;12.40;87.10;;;;;;5033938;28;20204;-76
2021/05/28 02:16:33;;;;;;;7.80;4.83;;;12.30;86.60;;;;;;5033065;28;20276;-76
2021/05/28 02:19:00;;;;;;;11.37;5.33;;;12.30;87.10;;;;;;5051997;28;20851;-76
2021/05/28 02:21:27;;;;;;;9.13;4.50;;;12.30;87.60;;;;;;5040016;28;20435;-76
2021/05/28 02:23:52;;;;;;;6.63;4.10;;;12.30;87.80;;;;;;5032488;28;20466;-76
2021/05/28 02:26:18;;;;;;;15.83;5.30;;;12.30;88.00;;;;;;5046186;28;20447;-75
2021/05/28 02:28:44;;;;;;;5.77;3.90;;;12.30;88.00;;;;;;5026234;28;20214;-75
2021/05/28 02:31:09;;;;;;;6.47;4.53;;;12.40;88.60;;;;;;5039258;28;20579;-75
2021/05/28 02:33:36;;;;;;;9.03;4.33;;;12.50;88.60;;;;;;5044197;28;20291;-75
2021/05/28 02:36:03;;;;;;;6.10;3.93;;;12.60;88.60;;;;;;5033025;28;20216;-76
2021/05/28 02:38:29;;;;;;;10.80;4.73;;;12.50;88.60;;;;;;5044865;28;20423;-75
2021/05/28 02:40:55;;;;;;;9.33;5.80;;;12.60;88.10;;;;;;5019245;28;20417;-76
2021/05/28 02:43:21;;;;;;;6.10;4.50;;;12.60;87.30;;;;;;5024936;28;20189;-76
2021/05/28 02:45:46;;;;;;;8.33;4.33;;;12.50;87.40;;;;;;5027701;28;20213;-76
2021/05/28 02:48:12;;;;;;;7.77;4.67;;;12.40;87.80;;;;;;5045854;28;20195;-75
2021/05/28 02:50:38;;;;;;;9.80;5.10;;;12.40;88.10;;;;;;5045619;28;20188;-77
2021/05/28 02:53:04;;;;;;;6.60;4.40;;;12.30;88.30;;;;;;5033491;28;20272;-76
2021/05/28 02:55:30;;;;;;;8.63;4.30;;;12.30;88.30;;;;;;5045080;28;20188;-76
2021/05/28 02:57:55;;;;;;;8.50;4.60;;;12.30;87.70;;;;;;5032304;28;20275;-76
2021/05/28 03:00:23;;;;;;;6.60;4.40;;;12.30;87.80;;;;;;5045414;28;20890;-76
2021/05/28 03:02:50;;;;;;;8.80;4.40;;;12.20;88.00;;;;;;5013970;28;20556;-75
2021/05/28 03:05:16;;;;;;;7.90;4.60;;;12.20;88.60;;;;;;5039028;28;20440;-76
2021/05/28 03:07:42;;;;;;;7.50;4.77;;;12.10;88.60;;;;;;5051915;28;20877;-77
2021/05/28 03:10:10;;;;;;;11.90;4.90;;;12.00;87.60;;;;;;5037681;28;20420;-76
2021/05/28 03:12:36;;;;;;;6.83;4.17;;;12.00;88.10;;;;;;5031806;28;20423;-76
2021/05/28 03:15:02;;;;;;;7.93;4.43;;;12.10;87.60;;;;;;5044812;28;20798;-76
2021/05/28 03:17:28;;;;;;;7.37;4.13;;;12.00;87.00;;;;;;5024168;28;20772;-75
2021/05/28 03:19:54;;;;;;;6.13;4.20;;;12.00;87.70;;;;;;5014217;28;20443;-75
2021/05/28 03:22:36;;;;;;;6.63;4.20;;;11.90;87.30;;;;;;5043669;28;20416;-75
2021/05/28 03:25:12;;;;;;;6.80;4.37;;;11.90;87.00;;;;;;5047338;28;20214;-76
2021/05/28 03:27:38;;;;;;;8.50;4.17;;;11.80;86.50;;;;;;5039259;28;20462;-76
2021/05/28 03:30:06;;;;;;;7.47;3.40;;;11.60;86.50;;;;;;5035303;28;20426;-76
2021/05/28 03:32:32;;;;;;;6.43;4.07;;;11.60;86.60;;;;;;5050219;28;20500;-77
2021/05/28 03:34:58;;;;;;;10.10;4.10;;;11.60;86.90;;;;;;5051514;28;20646;-76
2021/05/28 03:37:24;;;;;;;7.63;3.70;;;11.70;86.90;;;;;;5051665;28;20465;-75
2021/05/28 03:39:51;;;;;;;7.23;4.47;;;11.70;86.80;;;;;;5038293;28;20211;-76
2021/05/28 03:42:18;;;;;;;7.37;4.07;;;11.70;86.60;;;;;;5052198;28;20422;-76
2021/05/28 03:44:45;;;;;;;6.53;3.90;;;11.80;87.60;;;;;;5043580;28;20511;-75
2021/05/28 03:47:10;;;;;;;6.67;4.30;;;11.70;88.60;;;;;;5041600;28;20512;-76
2021/05/28 03:49:37;;;;;;;8.77;4.80;;;11.60;89.90;;;;;;5028471;28;20429;-77
2021/05/28 03:52:03;;;;;;;6.27;3.70;;;11.60;90.10;;;;;;5034993;28;20215;-77
2021/05/28 03:54:29;;;;;;;6.70;4.00;;;11.50;90.20;;;;;;5032705;28;20492;-76
2021/05/28 03:56:54;;;;;;;8.80;4.83;;;11.60;89.60;;;;;;5018400;28;20928;-76
2021/05/28 03:59:20;;;;;;;8.83;4.23;;;11.50;89.90;;;;;;5030110;28;20196;-77
2021/05/28 04:01:47;;;;;;;7.60;4.70;;;11.50;90.30;;;;;;5021202;28;20186;-77
2021/05/28 04:04:13;;;;;;;7.83;4.00;;;11.40;90.10;;;;;;5030276;28;20238;-78
2021/05/28 04:06:38;;;;;;;7.27;4.43;;;11.50;90.30;;;;;;5031742;28;20444;-77
2021/05/28 04:09:04;;;;;;;7.03;4.67;;;11.50;90.50;;;;;;5026148;28;20268;-76
2021/05/28 04:11:30;;;;;;;7.13;5.03;;;11.60;90.60;;;;;;5022067;28;20189;-77
2021/05/28 04:13:56;;;;;;;10.57;5.30;;;11.50;90.40;;;;;;5043552;28;20579;-76
2021/05/28 04:16:22;;;;;;;9.93;5.20;;;11.30;89.70;;;;;;5018544;28;20451;-76
2021/05/28 04:18:47;;;;;;;8.07;5.00;;;11.30;90.10;;;;;;5043935;28;20177;-76
2021/05/28 04:21:13;;;;;;;7.30;5.10;;;11.30;90.30;;;;;;5032054;28;20177;-77
2021/05/28 04:23:39;;;;;;;11.77;6.17;;;11.30;90.40;;;;;;5037225;28;20674;-76
2021/05/28 04:26:05;;;;;;;11.97;5.57;;;11.40;90.40;;;;;;5040213;28;20224;-77
2021/05/28 04:28:30;;;;;;;10.67;5.97;;;11.40;90.30;;;;;;5032419;28;20185;-77
2021/05/28 04:30:57;;;;;;;12.63;6.40;;;11.40;90.50;;;;;;5045634;28;20240;-76
2021/05/28 04:33:24;;;;;;;13.70;6.17;;;11.40;90.60;;;;;;5046249;28;20196;-76
2021/05/28 04:35:50;;;;;;;12.03;6.83;;;11.40;90.80;;;;;;5031342;28;20432;-76
2021/05/28 04:38:16;;;;;;;11.60;6.30;;;11.40;90.90;;;;;;5043207;28;20431;-76
2021/05/28 04:40:42;;;;;;;9.93;5.60;;;11.50;90.80;;;;;;5042250;28;20549;-76
2021/05/28 04:43:08;;;;;;;12.50;6.67;;;11.50;91.00;;;;;;5051332;28;20415;-76
2021/05/28 04:45:35;;;;;;;11.90;6.70;;;11.40;90.30;;;;;;5041884;28;20417;-75
2021/05/28 04:48:00;;;;;;;13.60;6.47;;;11.40;90.20;;;;;;5052687;28;20272;-75
2021/05/28 04:50:30;;;;;;;13.83;6.70;;;11.40;90.20;;;;;;5038557;28;20522;-75
2021/05/28 04:53:04;;;;;;;12.27;6.00;;;11.50;90.20;;;;;;5031253;28;20415;-76
2021/05/28 04:55:30;;;;;;;11.33;5.90;;;11.70;89.60;;;;;;5030648;28;20428;-75
2021/05/28 04:57:57;;;;;;;13.63;7.37;;;11.80;88.90;;;;;;5030699;28;20450;-75
2021/05/28 05:00:24;;;;;;;12.87;7.40;;;11.80;88.30;;;;;;5041402;28;20441;-74
2021/05/28 05:02:50;;;;;;;11.83;6.73;;;11.60;88.10;;;;;;5022578;28;20459;-77
2021/05/28 05:05:17;;;;;;;21.70;7.00;;;11.60;88.90;;;;;;5024341;28;20428;-75
2021/05/28 05:07:43;;;;;;;14.03;6.60;;;11.70;88.30;;;;;;5049938;28;20443;-74
2021/05/28 05:10:10;;;;;;;12.93;6.90;;;11.60;89.00;;;;;;5044550;28;20423;-76
2021/05/28 05:12:38;;;;;;;13.83;7.67;;;11.70;88.70;;;;;;5044356;28;20423;-77
2021/05/28 05:15:05;;;;;;;14.80;7.53;;;11.50;89.30;;;;;;5042381;28;20650;-75
2021/05/28 05:17:31;;;;;;;15.73;7.43;;;11.30;90.10;;;;;;5029620;28;21004;-75
2021/05/28 05:19:57;;;;;;;15.13;7.87;;;11.30;90.50;;;;;;5042889;28;20427;-74
2021/05/28 05:22:23;;;;;;;12.93;6.80;;;11.30;90.60;;;;;;5036784;28;20180;-75
2021/05/28 05:24:49;;;;;;;14.57;6.97;;;11.40;90.30;;;;;;5035435;28;21003;-75
2021/05/28 05:27:15;;;;;;;12.07;6.83;;;11.60;90.20;;;;;;5034007;28;20271;-75
2021/05/28 05:29:40;;;;;;;18.00;7.03;;;11.70;90.00;;;;;;5052232;28;20812;-75
2021/05/28 05:32:07;;;;;;;16.13;8.10;;;11.70;89.00;;;;;;5062473;28;20320;-74
2021/05/28 05:34:33;;;;;;;12.13;6.70;;;11.60;89.20;;;;;;5045847;28;20262;-75
2021/05/28 05:37:01;;;;;;;16.80;8.90;;;11.60;89.90;;;;;;5036642;28;20504;-75
2021/05/28 05:39:28;;;;;;;18.77;9.60;;;11.70;89.50;;;;;;5049711;28;20419;-77
2021/05/28 05:41:54;;;;;;;15.80;8.90;;;11.50;89.50;;;;;;5034091;28;20475;-75
2021/05/28 05:44:19;;;;;;;12.57;7.40;;;11.50;90.00;;;;;;5034175;28;21174;-75
2021/05/28 05:46:45;;;;;;;18.83;9.03;;;11.60;89.90;;;;;;5035604;28;20201;-75
2021/05/28 05:49:11;;;;;;;15.93;8.53;;;11.50;89.90;;;;;;5052601;28;20188;-74
2021/05/28 05:51:37;;;;;;;15.37;8.07;;;11.60;90.00;;;;;;5047950;28;20280;-74
2021/05/28 05:54:04;;;;;;;15.97;8.03;;;11.90;89.60;;;;;;5040492;28;20482;-75
2021/05/28 05:56:30;;;;;;;13.70;7.70;;;11.90;88.10;;;;;;5029467;28;20205;-75
2021/05/28 05:58:56;;;;;;;15.57;7.83;;;11.90;88.60;;;;;;5041630;28;20442;-75
2021/05/28 06:01:21;;;;;;;16.60;8.30;;;12.10;88.40;;;;;;5054037;28;20569;-75
2021/05/28 06:03:47;;;;;;;18.40;8.20;;;12.00;88.10;;;;;;5027112;28;20252;-75
2021/05/28 06:06:13;;;;;;;15.17;8.07;;;11.90;88.60;;;;;;5041327;28;20209;-75
2021/05/28 06:08:39;;;;;;;20.60;8.77;;;12.00;89.20;;;;;;5039315;28;20193;-75
2021/05/28 06:11:04;;;;;;;20.80;7.73;;;12.00;88.00;;;;;;5044745;28;20188;-75
2021/05/28 06:13:30;;;;;;;11.80;7.50;;;11.90;88.70;;;;;;5045425;28;20220;-75
2021/05/28 06:15:56;;;;;;;16.07;8.60;;;12.10;88.70;;;;;;5040747;28;20217;-75
2021/05/28 06:18:22;;;;;;;17.20;8.90;;;12.30;87.80;;;;;;5052705;28;20180;-75
2021/05/28 06:20:48;;;;;;;19.07;8.13;;;12.20;87.40;;;;;;5041715;28;20180;-75
2021/05/28 06:23:13;;;;;;;19.03;9.10;;;12.40;87.40;;;;;;5051466;28;20437;-76
2021/05/28 06:25:41;;;;;;;22.50;9.80;;;12.70;86.80;;;;;;5033346;28;20435;-75
2021/05/28 06:28:08;;;;;;;17.13;8.20;;;12.70;85.60;;;;;;5036279;28;20427;-75
2021/05/28 06:30:34;;;;;;;16.73;8.37;;;12.50;86.00;;;;;;5053702;28;20407;-77
2021/05/28 06:33:02;;;;;;;16.63;8.67;;;12.70;85.60;;;;;;5039367;28;20464;-76
2021/05/28 06:35:29;;;;;;;15.93;9.07;;;12.50;85.70;;;;;;5042567;28;20452;-76
2021/05/28 06:37:55;;;;;;;19.83;7.93;;;12.40;86.60;;;;;;5046082;28;20502;-75
2021/05/28 06:40:21;;;;;;;17.20;8.87;;;12.40;86.20;;;;;;5032087;28;20548;-75
2021/05/28 06:42:46;;;;;;;15.43;7.40;;;12.40;85.50;;;;;;5044585;28;20181;-76
2021/05/28 06:45:13;;;;;;;18.10;8.20;;;12.70;85.30;;;;;;5030362;28;20193;-75
2021/05/28 06:47:38;;;;;;;13.57;8.10;;;12.90;84.40;;;;;;5047129;28;20663;-75
2021/05/28 06:50:04;;;;;;;15.70;7.40;;;12.60;84.90;;;;;;5042240;28;20431;-76
2021/05/28 06:52:30;;;;;;;15.70;7.63;;;12.90;84.90;;;;;;5044186;28;20275;-75
2021/05/28 06:54:56;;;;;;;21.10;8.80;;;12.90;84.10;;;;;;5029018;28;20565;-76
2021/05/28 06:57:22;;;;;;;21.50;7.53;;;12.80;83.70;;;;;;5051874;28;20601;-76
2021/05/28 06:59:48;;;;;;;17.20;8.90;;;12.90;84.40;;;;;;5051509;28;20183;-76
2021/05/28 07:02:14;;;;;;;14.47;7.37;;;13.00;84.10;;;;;;5049410;28;20504;-75
2021/05/28 07:04:39;;;;;;;12.93;7.43;;;13.20;83.80;;;;;;5021611;28;20926;-74
2021/05/28 07:07:05;;;;;;;12.97;7.30;;;13.50;82.80;;;;;;5050627;28;20216;-76
2021/05/28 07:09:32;;;;;;;15.20;9.07;;;13.50;82.50;;;;;;5042898;28;20272;-76
2021/05/28 07:11:57;;;;;;;13.77;7.37;;;13.60;81.70;;;;;;5038488;28;20189;-75
2021/05/28 07:14:23;;;;;;;17.33;8.03;;;13.80;81.20;;;;;;5041704;28;20491;-76
2021/05/28 07:16:49;;;;;;;14.50;8.30;;;13.90;80.00;;;;;;5048608;28;20292;-75
2021/05/28 07:19:15;;;;;;;13.27;7.30;;;13.60;80.90;;;;;;5040889;28;20268;-74
2021/05/28 07:21:40;;;;;;;17.23;7.70;;;13.70;81.40;;;;;;5047375;28;20267;-74
2021/05/28 07:24:07;;;;;;;14.07;8.00;;;14.10;79.30;;;;;;5042096;28;20188;-75
2021/05/28 07:26:33;;;;;;;12.47;7.50;;;14.20;78.70;;;;;;5030041;28;20216;-76
2021/05/28 07:28:59;;;;;;;12.43;7.30;;;14.50;78.30;;;;;;5039077;28;20912;-76
2021/05/28 07:31:25;;;;;;;12.80;7.83;;;14.50;77.10;;;;;;5037187;28;20480;-74
2021/05/28 07:33:51;;;;;;;11.77;7.10;;;14.20;78.00;;;;;;5041542;28;20205;-77
2021/05/28 07:36:16;;;;;;;17.83;8.30;;;14.20;78.40;;;;;;5031061;28;20949;-76
2021/05/28 07:38:43;;;;;;;17.10;8.77;;;14.00;79.20;;;;;;5039682;28;20191;-76
2021/05/28 07:41:09;;;;;;;12.20;8.00;;;13.90;80.20;;;;;;5050010;28;20188;-75
2021/05/28 07:43:35;;;;;;;14.70;8.87;;;14.10;79.90;;;;;;5050776;28;20423;-75
2021/05/28 07:46:01;;;;;;;10.70;6.80;;;14.20;78.40;;;;;;5033023;28;20741;-75
2021/05/28 07:48:27;;;;;;;12.17;7.70;;;14.00;79.30;;;;;;5031213;28;20664;-74
2021/05/28 07:50:58;;;;;;;20.13;9.23;;;14.10;78.90;;;;;;5030768;28;20431;-76
2021/05/28 07:53:26;;;;;;;18.43;9.07;;;13.90;79.00;;;;;;5023075;28;20209;-77
2021/05/28 07:55:52;;;;;;;15.37;8.53;;;13.80;79.30;;;;;;5027247;28;20442;-75
2021/05/28 07:58:18;;;;;;;14.33;7.63;;;13.70;79.90;;;;;;5040448;28;20476;-76
2021/05/28 08:00:44;;;;;;;12.70;7.40;;;13.80;78.70;;;;;;5038620;28;20423;-76
2021/05/28 08:03:10;;;;;;;12.00;6.97;;;13.90;78.30;;;;;;5033843;28;20184;-75
2021/05/28 08:05:36;;;;;;;17.63;7.20;;;14.00;77.00;;;;;;5030250;28;20420;-77
2021/05/28 08:08:03;;;;;;;11.83;7.60;;;14.00;78.40;;;;;;5045232;28;20725;-75
2021/05/28 08:10:29;;;;;;;13.20;7.47;;;14.20;77.10;;;;;;5053822;28;20474;-75
2021/05/28 08:12:55;;;;;;;11.90;6.77;;;14.50;76.20;;;;;;5052190;28;20427;-75
2021/05/28 08:15:22;;;;;;;14.50;7.10;;;14.50;75.80;;;;;;5037596;28;20464;-75
2021/05/28 08:17:48;;;;;;;12.83;6.87;;;14.50;74.60;;;;;;5045885;28;20418;-76
2021/05/28 08:20:15;;;;;;;14.07;6.47;;;14.60;74.30;;;;;;5054221;28;20459;-77
2021/05/28 08:22:43;;;;;;;15.57;7.57;;;14.80;73.70;;;;;;5050064;28;20469;-74
2021/05/28 08:25:09;;;;;;;30.17;9.40;;;14.80;72.10;;;;;;5037105;28;20419;-74
2021/05/28 08:27:35;;;;;;;25.03;8.87;;;14.80;73.20;;;;;;5050652;28;20449;-76
2021/05/28 08:30:00;;;;;;;24.80;6.87;;;14.40;74.00;;;;;;5032909;28;20428;-75
2021/05/28 08:32:26;;;;;;;17.30;6.80;;;14.50;74.60;;;;;;5041996;28;20192;-76
2021/05/28 08:34:52;;;;;;;16.70;7.50;;;14.70;73.70;;;;;;5045122;28;20220;-75
2021/05/28 08:37:18;;;;;;;10.93;7.10;;;14.80;73.00;;;;;;5042102;28;20201;-76
2021/05/28 08:39:43;;;;;;;11.77;6.10;;;14.60;73.30;;;;;;5036795;28;20181;-76
2021/05/28 08:42:10;;;;;;;39.63;8.20;;;14.70;72.00;;;;;;5038810;28;20720;-75
2021/05/28 08:44:37;;;;;;;11.10;6.80;;;14.40;73.50;;;;;;5043475;28;20198;-77
2021/05/28 08:47:03;;;;;;;17.00;7.80;;;14.70;72.00;;;;;;5029735;28;20460;-75
2021/05/28 08:49:29;;;;;;;15.40;7.53;;;14.30;74.20;;;;;;5017008;28;20899;-74
2021/05/28 08:51:57;;;;;;;15.87;7.10;;;14.20;75.10;;;;;;5040985;28;20478;-77
2021/05/28 08:54:24;;;;;;;12.50;6.40;;;14.10;74.80;;;;;;5027080;28;20890;-75
2021/05/28 08:56:51;;;;;;;10.40;6.27;;;14.30;75.50;;;;;;5039569;28;20436;-76
2021/05/28 08:59:17;;;;;;;8.87;5.63;;;14.90;73.50;;;;;;5034107;28;20511;-75
2021/05/28 09:01:43;;;;;;;11.50;6.43;;;15.10;70.70;;;;;;5050441;28;20505;-77
2021/05/28 09:04:11;;;;;;;12.43;6.80;;;14.90;72.00;;;;;;5040496;28;20784;-75
2021/05/28 09:06:47;;;;;;;11.00;5.93;;;14.90;71.00;;;;;;5045998;28;20241;-75
2021/05/28 09:09:18;;;;;;;11.90;6.87;;;14.70;72.10;;;;;;5024241;28;20502;-77
2021/05/28 09:11:58;;;;;;;13.67;5.90;;;14.70;71.80;;;;;;5036676;28;20907;-75
2021/05/28 09:14:35;;;;;;;9.30;5.20;;;15.00;72.10;;;;;;5031219;28;20574;-77
2021/05/28 09:17:05;;;;;;;14.80;6.57;;;15.00;70.50;;;;;;5030019;28;20455;-75
2021/05/28 09:19:34;;;;;;;9.47;6.27;;;14.80;71.80;;;;;;5032328;28;20449;-76
2021/05/28 09:22:10;;;;;;;11.60;5.80;;;14.90;71.30;;;;;;5030394;28;20436;-75
2021/05/28 09:24:41;;;;;;;14.50;6.83;;;14.90;71.60;;;;;;5039421;28;20430;-76
2021/05/28 09:27:26;;;;;;;10.80;6.10;;;14.90;71.10;;;;;;5038952;28;20451;-74
2021/05/28 09:30:12;;;;;;;8.87;5.47;;;15.10;70.70;;;;;;5036469;28;20433;-76
2021/05/28 09:32:48;;;;;;;17.83;7.40;;;15.40;68.90;;;;;;5055273;28;20450;-77
2021/05/28 09:35:21;;;;;;;25.13;8.13;;;15.10;71.30;;;;;;5052815;28;20531;-77
2021/05/28 09:37:51;;;;;;;10.80;5.67;;;15.00;72.10;;;;;;5047332;28;20416;-77
2021/05/28 09:40:22;;;;;;;11.67;6.10;;;15.00;72.60;;;;;;5055452;28;20433;-74
2021/05/28 09:42:50;;;;;;;10.60;6.17;;;15.10;71.00;;;;;;5025105;28;20431;-76
2021/05/28 09:45:38;;;;;;;23.23;7.60;;;15.10;70.10;;;;;;5041282;28;20577;-75
2021/05/28 09:48:16;;;;;;;12.03;5.40;;;14.80;70.70;;;;;;5032335;28;20424;-75
2021/05/28 09:50:45;;;;;;;12.33;6.40;;;15.00;70.40;;;;;;5030396;28;20926;-76
2021/05/28 09:53:43;;;;;;;8.97;5.40;;;15.00;70.20;;;;;;5021783;28;21130;-74
2021/05/28 09:56:31;;;;;;;14.23;6.60;;;15.20;70.50;;;;;;5016774;28;20480;-75
2021/05/28 09:59:06;;;;;;;14.97;7.07;;;15.20;71.10;;;;;;5044944;28;20426;-76
2021/05/28 10:01:32;;;;;;;11.97;7.77;;;15.30;70.70;;;;;;5037572;28;20834;-75
2021/05/28 10:04:04;;;;;;;9.33;5.60;;;15.10;69.40;;;;;;5025802;28;20502;-75
2021/05/28 10:06:38;;;;;;;11.17;5.70;;;14.90;71.10;;;;;;5031393;28;20478;-76
2021/05/28 10:09:06;;;;;;;14.73;6.63;;;14.90;71.80;;;;;;5043304;28;20459;-75
2021/05/28 10:11:33;;;;;;;11.90;6.07;;;14.70;71.40;;;;;;5016033;28;20441;-77
2021/05/28 10:13:59;;;;;;;8.80;5.67;;;14.80;70.20;;;;;;5025965;28;20464;-77
2021/05/28 10:16:25;;;;;;;8.40;5.30;;;15.00;68.00;;;;;;5032185;28;20441;-77
2021/05/28 10:18:56;;;;;;;13.40;6.20;;;15.20;66.40;;;;;;5046631;28;20423;-76
2021/05/28 10:21:23;;;;;;;9.90;6.00;;;14.90;67.20;;;;;;5038183;28;20191;-77
2021/05/28 10:23:50;;;;;;;8.03;5.27;;;14.90;67.00;;;;;;5034965;28;20428;-76
2021/05/28 10:26:23;;;;;;;11.00;6.43;;;15.30;66.00;;;;;;5044373;28;20443;-76
2021/05/28 10:28:49;;;;;;;11.13;5.57;;;15.90;64.10;;;;;;5047009;28;20431;-75
2021/05/28 10:31:14;;;;;;;8.90;5.57;;;16.30;62.80;;;;;;5034587;28;20450;-76
2021/05/28 10:33:49;;;;;;;10.83;5.53;;;16.70;61.70;;;;;;5051203;28;20467;-75
2021/05/28 10:36:41;;;;;;;35.80;7.70;;;16.10;61.60;;;;;;5044163;28;20208;-75
2021/05/28 10:39:10;;;;;;;9.90;4.93;;;15.80;63.40;;;;;;5043229;28;20960;-75
2021/05/28 10:41:48;;;;;;;10.40;4.83;;;16.30;61.60;;;;;;5042288;28;20429;-76
2021/05/28 10:44:16;;;;;;;9.00;4.73;;;16.60;59.90;;;;;;5030576;28;20425;-75
2021/05/28 10:47:11;;;;;;;12.80;6.30;;;16.80;59.60;;;;;;5029475;28;20448;-77
2021/05/28 10:49:44;;;;;;;7.77;4.77;;;16.70;61.50;;;;;;5032682;28;20420;-76
2021/05/28 10:52:15;;;;;;;9.57;5.77;;;16.50;61.90;;;;;;5033521;28;20418;-76
2021/05/28 10:54:43;;;;;;;10.37;5.60;;;16.00;61.90;;;;;;5039956;28;20452;-76
2021/05/28 10:57:20;;;;;;;12.70;5.13;;;16.50;61.30;;;;;;5064359;28;20446;-75
2021/05/28 10:59:48;;;;;;;8.63;4.63;;;17.30;59.10;;;;;;5046646;28;20427;-74
2021/05/28 11:02:16;;;;;;;10.07;5.50;;;17.80;54.80;;;;;;5055822;28;20451;-75
2021/05/28 11:04:42;;;;;;;18.67;6.63;;;17.80;54.10;;;;;;5045484;28;20446;-75
2021/05/28 11:07:10;;;;;;;11.10;5.53;;;18.30;53.60;;;;;;5034409;28;20532;-76
2021/05/28 11:09:42;;;;;;;7.13;4.47;;;18.20;53.40;;;;;;5040388;28;20236;-76
2021/05/28 11:12:09;;;;;;;6.60;4.50;;;18.90;52.10;;;;;;5040554;28;20509;-76
2021/05/28 11:14:40;;;;;;;5.27;3.70;;;19.60;48.20;;;;;;5052303;28;20839;-76
2021/05/28 11:17:13;;;;;;;5.87;4.27;;;18.60;50.30;;;;;;5030227;28;20590;-76
2021/05/28 11:19:46;;;;;;;6.10;3.77;;;18.30;51.00;;;;;;5045134;28;20420;-75
2021/05/28 11:22:32;;;;;;;5.50;3.87;;;18.50;49.90;;;;;;5050469;28;20440;-76
2021/05/28 11:25:01;;;;;;;5.90;4.50;;;18.20;50.10;;;;;;5054235;28;20454;-75
2021/05/28 11:27:26;;;;;;;9.83;4.20;;;17.00;53.40;;;;;;5046612;28;20513;-75
2021/05/28 11:29:53;;;;;;;16.80;4.10;;;16.70;55.20;;;;;;5049174;28;20504;-74
2021/05/28 11:32:33;;;;;;;10.43;5.10;;;16.40;56.20;;;;;;5046922;28;20192;-77
2021/05/28 11:35:15;;;;;;;5.93;3.50;;;16.10;57.70;;;;;;5035421;28;20497;-75
2021/05/28 11:37:42;;;;;;;36.77;7.73;;;16.40;56.50;;;;;;5042142;28;20493;-75
2021/05/28 11:40:19;;;;;;;7.77;4.40;;;16.30;57.30;;;;;;5046847;28;20420;-75
2021/05/28 11:42:46;;;;;;;18.67;4.90;;;16.90;55.70;;;;;;5047500;28;20418;-77
2021/05/28 11:45:14;;;;;;;5.53;3.23;;;17.30;54.50;;;;;;5045791;28;20437;-75
2021/05/28 11:47:40;;;;;;;6.40;4.50;;;18.10;52.00;;;;;;5032247;28;21126;-76
2021/05/28 11:50:16;;;;;;;7.87;4.60;;;18.50;49.70;;;;;;5031469;28;20433;-75
2021/05/28 11:53:02;;;;;;;9.10;4.87;;;18.20;50.70;;;;;;5032523;28;20424;-76
2021/05/28 11:55:30;;;;;;;8.90;4.10;;;18.00;51.60;;;;;;5029430;28;20472;-76
2021/05/28 11:58:00;;;;;;;15.90;5.27;;;17.20;53.40;;;;;;5045056;28;20451;-76
2021/05/28 12:00:27;;;;;;;17.27;5.27;;;16.90;54.60;;;;;;5019835;28;20424;-76
2021/05/28 12:02:57;;;;;;;8.30;3.63;;;17.00;54.20;;;;;;5028715;28;20423;-75
2021/05/28 12:05:36;;;;;;;5.80;4.10;;;17.00;53.00;;;;;;5030608;28;20957;-76
2021/05/28 12:08:11;;;;;;;21.23;5.20;;;16.70;54.80;;;;;;5020426;28;20457;-75
2021/05/28 12:10:51;;;;;;;9.50;4.57;;;16.70;56.10;;;;;;5045329;28;20418;-76
2021/05/28 12:13:25;;;;;;;7.87;4.30;;;17.30;55.00;;;;;;5041315;28;20412;-75
2021/05/28 12:15:51;;;;;;;15.07;4.17;;;17.80;52.40;;;;;;5051565;28;20530;-75
2021/05/28 12:18:24;;;;;;;5.20;3.70;;;18.40;51.60;;;;;;5044058;28;20452;-75
2021/05/28 12:21:08;;;;;;;4.63;3.50;;;18.70;49.30;;;;;;5051225;28;20414;-76
2021/05/28 12:23:48;;;;;;;4.60;3.43;;;19.60;48.10;;;;;;5051636;28;21041;-76
2021/05/28 12:26:21;;;;;;;11.80;4.43;;;19.30;45.90;;;;;;5044553;28;20445;-76
2021/05/28 12:28:54;;;;;;;7.17;3.30;;;18.30;48.10;;;;;;5040865;28;20451;-75
2021/05/28 12:31:22;;;;;;;5.30;3.37;;;17.80;47.90;;;;;;5038932;28;20451;-75
2021/05/28 12:33:55;;;;;;;9.10;3.93;;;18.00;47.80;;;;;;5024653;28;20472;-75
2021/05/28 12:36:29;;;;;;;4.83;3.37;;;17.90;47.50;;;;;;5024754;28;20522;-76
2021/05/28 12:38:56;;;;;;;10.87;4.17;;;17.80;49.10;;;;;;5050281;28;20486;-76
2021/05/28 12:41:23;;;;;;;7.70;3.70;;;17.90;50.10;;;;;;5049863;28;20791;-77
2021/05/28 12:43:52;;;;;;;5.67;4.10;;;17.60;52.50;;;;;;5041842;28;20435;-75
2021/05/28 12:46:50;;;;;;;20.43;4.97;;;17.20;55.70;;;;;;5043137;28;20444;-77